createdAt,value
2018-09-10T00:00:56.773Z,60.09
2018-09-10T00:01:56.680Z,59.91
2018-09-10T00:02:56.622Z,59.86
2018-09-10T00:03:56.877Z,60.42
2018-09-10T00:04:56.500Z,60.46
2018-09-10T00:05:56.523Z,60.02
2018-09-10T00:06:56.499Z,60.21
2018-09-10T00:07:56.862Z,60.57
2018-09-10T00:08:56.503Z,60.7
2018-09-10T00:09:56.538Z,60.89
2018-09-10T00:10:56.616Z,61.19
2018-09-10T00:11:56.510Z,60.99
2018-09-10T00:12:56.495Z,60.73
2018-09-10T00:13:56.493Z,61.72
2018-09-10T00:14:56.555Z,61.37
2018-09-10T00:15:56.494Z,61.45
2018-09-10T00:16:56.553Z,61.63
2018-09-10T00:17:56.567Z,61.67
2018-09-10T00:18:56.539Z,61.57
2018-09-10T00:19:56.485Z,61.45
2018-09-10T00:20:56.478Z,61.45
2018-09-10T00:21:56.491Z,61.49
2018-09-10T00:22:56.493Z,62.09
2018-09-10T00:23:56.489Z,61.84
2018-09-10T00:24:56.496Z,61.41
2018-09-10T00:25:56.581Z,61.83
2018-09-10T00:26:56.499Z,61.9
2018-09-10T00:27:56.593Z,61.75
2018-09-10T00:28:56.793Z,61.56
2018-09-10T00:29:56.509Z,62.11
2018-09-10T00:30:56.571Z,62.57
2018-09-10T00:31:56.528Z,61.86
2018-09-10T00:32:56.558Z,61.96
2018-09-10T00:33:56.542Z,61.09
2018-09-10T00:34:57.158Z,61.52
2018-09-10T00:35:56.605Z,61.37
2018-09-10T00:36:56.689Z,61.75
2018-09-10T00:37:56.575Z,61.66
2018-09-10T00:38:56.584Z,61.47
2018-09-10T00:39:56.609Z,62.37
2018-09-10T00:40:56.635Z,62.12
2018-09-10T00:41:56.724Z,61.39
2018-09-10T00:42:56.618Z,62.11
2018-09-10T00:43:56.542Z,61.6
2018-09-10T00:44:56.593Z,61.83
2018-09-10T00:45:56.489Z,61.28
2018-09-10T00:46:56.512Z,62.1
2018-09-10T00:47:56.582Z,62.79
2018-09-10T00:48:56.845Z,62.17
2018-09-10T00:49:56.534Z,62.46
2018-09-10T00:50:56.505Z,61.87
2018-09-10T00:51:56.574Z,61.97
2018-09-10T00:52:56.561Z,62.28
2018-09-10T00:53:56.580Z,61.85
2018-09-10T00:54:56.970Z,61.72
2018-09-10T00:55:56.599Z,62.11
2018-09-10T00:56:56.548Z,62.24
2018-09-10T00:57:56.518Z,61.93
2018-09-10T00:58:56.728Z,62.94
2018-09-10T00:59:56.723Z,62.43
2018-09-10T01:00:56.558Z,62.64
2018-09-10T01:01:56.620Z,62.67
2018-09-10T01:02:56.529Z,63.01
2018-09-10T01:03:56.596Z,62.88
2018-09-10T01:04:56.578Z,62.97
2018-09-10T01:05:56.540Z,62.48
2018-09-10T01:06:56.536Z,62.98
2018-09-10T01:07:56.627Z,62.96
2018-09-10T01:08:56.526Z,63.34
2018-09-10T01:09:56.534Z,63.32
2018-09-10T01:10:56.529Z,63.1
2018-09-10T01:11:56.523Z,63.14
2018-09-10T01:12:56.840Z,62.45
2018-09-10T01:13:56.595Z,62.96
2018-09-10T01:14:56.908Z,62.55
2018-09-10T01:15:56.709Z,62.45
2018-09-10T01:16:56.672Z,62.69
2018-09-10T01:17:57.235Z,63.13
2018-09-10T01:18:56.554Z,63.37
2018-09-10T01:19:56.638Z,63.27
2018-09-10T01:20:56.540Z,63.05
2018-09-10T01:21:56.674Z,63.49
2018-09-10T01:22:56.701Z,63.56
2018-09-10T01:23:56.559Z,63.02
2018-09-10T01:24:56.592Z,62.71
2018-09-10T01:25:56.549Z,63.3
2018-09-10T01:26:56.888Z,63.59
2018-09-10T01:27:56.587Z,63.53
2018-09-10T01:28:56.637Z,63.32
2018-09-10T01:29:56.552Z,63.72
2018-09-10T01:30:56.565Z,64.05
2018-09-10T01:31:56.641Z,63.47
2018-09-10T01:32:56.550Z,63.5
2018-09-10T01:33:56.557Z,63.15
2018-09-10T01:34:56.542Z,63.8
2018-09-10T01:35:56.591Z,64.03
2018-09-10T01:36:56.627Z,63.29
2018-09-10T01:37:56.555Z,63.54
2018-09-10T01:38:56.546Z,63.49
2018-09-10T01:39:56.569Z,64.14
2018-09-10T01:40:56.534Z,64.05
2018-09-10T01:41:56.550Z,62.98
2018-09-10T01:42:56.562Z,63.52
2018-09-10T01:43:56.599Z,64.18
2018-09-10T01:44:56.633Z,64.21
2018-09-10T01:45:56.580Z,63.61
2018-09-10T01:46:56.528Z,63.47
2018-09-10T01:47:56.551Z,63.47
2018-09-10T01:48:56.588Z,63.77
2018-09-10T01:49:56.620Z,64.35
2018-09-10T01:50:56.627Z,63.81
2018-09-10T01:51:56.559Z,64.81
2018-09-10T01:52:56.567Z,64.25
2018-09-10T01:53:56.573Z,63.82
2018-09-10T01:54:56.620Z,64.34
2018-09-10T01:55:56.559Z,63.66
2018-09-10T01:56:56.556Z,64.46
2018-09-10T01:57:56.911Z,64.61
2018-09-10T01:58:56.731Z,64.45
2018-09-10T01:59:56.563Z,64.85
2018-09-10T02:00:56.549Z,64.12
2018-09-10T02:01:56.561Z,64.44
2018-09-10T02:02:56.561Z,64.93
2018-09-10T02:03:56.609Z,64.24
2018-09-10T02:04:56.612Z,64.78
2018-09-10T02:05:56.778Z,64.26
2018-09-10T02:06:56.562Z,64.91
2018-09-10T02:07:56.656Z,64.52
2018-09-10T02:08:56.569Z,64.46
2018-09-10T02:09:56.618Z,64.89
2018-09-10T02:10:56.676Z,65.24
2018-09-10T02:11:56.585Z,64.7
2018-09-10T02:12:56.737Z,64.1
2018-09-10T02:13:56.591Z,64.31
2018-09-10T02:14:56.919Z,64.8
2018-09-10T02:15:56.635Z,64.52
2018-09-10T02:16:56.978Z,64.97
2018-09-10T02:17:56.564Z,64.83
2018-09-10T02:18:56.786Z,65.3
2018-09-10T02:19:56.780Z,65.39
2018-09-10T02:20:56.659Z,65
2018-09-10T02:21:56.610Z,64.47
2018-09-10T02:22:56.555Z,65.04
2018-09-10T02:23:56.571Z,65.29
2018-09-10T02:24:56.576Z,65.14
2018-09-10T02:25:56.585Z,65.14
2018-09-10T02:26:56.724Z,65.28
2018-09-10T02:27:56.635Z,65.4
2018-09-10T02:28:56.649Z,65.82
2018-09-10T02:29:57.022Z,66.01
2018-09-10T02:30:56.742Z,65.38
2018-09-10T02:31:56.682Z,65.33
2018-09-10T02:32:56.730Z,65.31
2018-09-10T02:33:56.778Z,65.8
2018-09-10T02:34:56.679Z,65.79
2018-09-10T02:35:57.056Z,66.02
2018-09-10T02:36:56.658Z,65.26
2018-09-10T02:37:56.581Z,65.73
2018-09-10T02:38:56.732Z,66.05
2018-09-10T02:39:57.458Z,65.88
2018-09-10T02:40:57.000Z,65.56
2018-09-10T02:41:56.604Z,65.46
2018-09-10T02:42:56.689Z,65.02
2018-09-10T02:43:56.605Z,65.99
2018-09-10T02:44:56.985Z,66.37
2018-09-10T02:45:56.649Z,66.24
2018-09-10T02:46:56.595Z,66.38
2018-09-10T02:47:56.916Z,65.83
2018-09-10T02:48:56.584Z,65.77
2018-09-10T02:49:56.578Z,66.28
2018-09-10T02:50:56.810Z,65.67
2018-09-10T02:51:56.612Z,65.72
2018-09-10T02:52:56.676Z,65.56
2018-09-10T02:53:56.634Z,65.57
2018-09-10T02:54:56.778Z,65.95
2018-09-10T02:55:56.591Z,66.29
2018-09-10T02:56:56.715Z,66.12
2018-09-10T02:57:56.727Z,66.38
2018-09-10T02:58:56.600Z,66.38
2018-09-10T02:59:56.570Z,66.31
2018-09-10T03:00:56.596Z,66.34
2018-09-10T03:01:56.589Z,66.83
2018-09-10T03:02:56.611Z,66.73
2018-09-10T03:03:56.592Z,66.25
2018-09-10T03:04:56.606Z,66.46
2018-09-10T03:05:56.585Z,66.81
2018-09-10T03:06:56.739Z,66.81
2018-09-10T03:07:56.628Z,66.8
2018-09-10T03:08:56.599Z,66.7
2018-09-10T03:09:56.639Z,66.44
2018-09-10T03:10:56.700Z,67.25
2018-09-10T03:11:56.653Z,66.08
2018-09-10T03:12:56.636Z,66.35
2018-09-10T03:13:56.641Z,66.64
2018-09-10T03:14:56.618Z,66.74
2018-09-10T03:15:56.634Z,66.75
2018-09-10T03:16:57.257Z,66.64
2018-09-10T03:17:56.927Z,67.27
2018-09-10T03:18:56.731Z,66.73
2018-09-10T03:19:57.055Z,66.9
2018-09-10T03:20:56.713Z,66.42
2018-09-10T03:21:56.675Z,66.96
2018-09-10T03:22:56.748Z,67.49
2018-09-10T03:23:57.092Z,66.87
2018-09-10T03:24:56.583Z,66.87
2018-09-10T03:25:57.410Z,66.5
2018-09-10T03:26:56.745Z,66.3
2018-09-10T03:27:56.913Z,66.85
2018-09-10T03:28:56.755Z,66.84
2018-09-10T03:29:56.618Z,66.84
2018-09-10T03:30:56.641Z,66.58
2018-09-10T03:31:57.139Z,66.56
2018-09-10T03:32:56.701Z,67.11
2018-09-10T03:33:56.701Z,66.62
2018-09-10T03:34:56.956Z,67.52
2018-09-10T03:35:56.819Z,67.17
2018-09-10T03:36:56.635Z,67.05
2018-09-10T03:37:56.615Z,66.91
2018-09-10T03:38:56.663Z,67.4
2018-09-10T03:39:56.627Z,67.54
2018-09-10T03:40:56.903Z,67.16
2018-09-10T03:41:56.654Z,66.82
2018-09-10T03:42:56.607Z,67.18
2018-09-10T03:43:56.642Z,67.04
2018-09-10T03:44:56.660Z,67.55
2018-09-10T03:45:57.062Z,67.81
2018-09-10T03:46:56.618Z,67.29
2018-09-10T03:47:56.664Z,67.56
2018-09-10T03:48:56.720Z,67.47
2018-09-10T03:49:56.760Z,67.54
2018-09-10T03:50:56.609Z,67.52
2018-09-10T03:51:56.668Z,67.39
2018-09-10T03:52:56.943Z,67.52
2018-09-10T03:53:57.291Z,66.92
2018-09-10T03:54:56.815Z,67.5
2018-09-10T03:55:56.650Z,67.93
2018-09-10T03:56:56.625Z,67.31
2018-09-10T03:57:56.820Z,67.5
2018-09-10T03:58:56.678Z,68
2018-09-10T03:59:56.635Z,67.65
2018-09-10T04:00:56.883Z,67.52
2018-09-10T04:01:56.668Z,67.58
2018-09-10T04:02:56.685Z,67.03
2018-09-10T04:03:58.094Z,67.94
2018-09-10T04:04:56.650Z,68.46
2018-09-10T04:05:57.063Z,68.17
2018-09-10T04:06:56.629Z,68.03
2018-09-10T04:07:56.635Z,68.32
2018-09-10T04:08:56.770Z,67.39
2018-09-10T04:09:56.650Z,68
2018-09-10T04:10:56.745Z,67.35
2018-09-10T04:11:56.656Z,67.26
2018-09-10T04:12:57.129Z,68.12
2018-09-10T04:13:56.864Z,68.01
2018-09-10T04:14:56.663Z,67.53
2018-09-10T04:15:56.657Z,67.98
2018-09-10T04:16:56.866Z,67.99
2018-09-10T04:17:56.768Z,67.95
2018-09-10T04:18:56.756Z,68.25
2018-09-10T04:19:56.865Z,68.13
2018-09-10T04:20:56.644Z,67.63
2018-09-10T04:21:56.832Z,67.87
2018-09-10T04:22:56.664Z,67.65
2018-09-10T04:23:56.707Z,67.9
2018-09-10T04:24:56.650Z,68.07
2018-09-10T04:25:56.971Z,67.94
2018-09-10T04:26:56.743Z,68.34
2018-09-10T04:27:56.666Z,68.39
2018-09-10T04:28:56.736Z,68.44
2018-09-10T04:29:56.681Z,68.51
2018-09-10T04:30:56.673Z,68.42
2018-09-10T04:31:56.730Z,68.49
2018-09-10T04:32:56.728Z,68.5
2018-09-10T04:33:56.673Z,68.45
2018-09-10T04:34:57.067Z,68.54
2018-09-10T04:35:56.995Z,68.83
2018-09-10T04:36:57.050Z,68.63
2018-09-10T04:37:56.637Z,68.16
2018-09-10T04:38:56.652Z,68.66
2018-09-10T04:39:56.679Z,69.19
2018-09-10T04:40:56.646Z,68.55
2018-09-10T04:41:56.697Z,68.97
2018-09-10T04:42:56.680Z,68.6
2018-09-10T04:43:56.688Z,68.86
2018-09-10T04:44:56.663Z,68.9
2018-09-10T04:45:57.143Z,68.8
2018-09-10T04:46:56.685Z,68.45
2018-09-10T04:47:57.032Z,68.65
2018-09-10T04:48:56.649Z,68.58
2018-09-10T04:49:56.779Z,68.66
2018-09-10T04:50:56.736Z,68.64
2018-09-10T04:51:56.684Z,68.77
2018-09-10T04:52:56.633Z,68.68
2018-09-10T04:53:56.787Z,68.82
2018-09-10T04:54:56.690Z,69.07
2018-09-10T04:55:56.635Z,68.48
2018-09-10T04:56:56.693Z,68.99
2018-09-10T04:57:56.877Z,69.25
2018-09-10T04:58:56.660Z,69.41
2018-09-10T04:59:56.707Z,68.95
2018-09-10T05:00:56.655Z,68.78
2018-09-10T05:01:56.747Z,69.34
2018-09-10T05:02:56.648Z,69.19
2018-09-10T05:03:56.858Z,69.3
2018-09-10T05:04:56.672Z,69.26
2018-09-10T05:05:56.664Z,69.14
2018-09-10T05:06:56.719Z,69.28
2018-09-10T05:07:57.091Z,68.89
2018-09-10T05:08:57.090Z,68.99
2018-09-10T05:09:57.090Z,69.12
2018-09-10T05:10:56.713Z,69.07
2018-09-10T05:11:56.638Z,69.02
2018-09-10T05:13:03.923Z,69.02
2018-09-10T05:13:56.655Z,68.92
2018-09-10T05:14:56.646Z,69.25
2018-09-10T05:15:56.661Z,68.87
2018-09-10T05:16:56.719Z,69.51
2018-09-10T05:17:56.718Z,69.5
2018-09-10T05:18:57.043Z,69.44
2018-09-10T05:19:56.738Z,69.65
2018-09-10T05:20:56.676Z,69.19
2018-09-10T05:21:57.123Z,69.46
2018-09-10T05:22:56.678Z,69.13
2018-09-10T05:23:56.973Z,69.09
2018-09-10T05:24:56.796Z,69.47
2018-09-10T05:25:56.741Z,69.07
2018-09-10T05:26:57.095Z,69.02
2018-09-10T05:27:56.792Z,68.95
2018-09-10T05:28:57.037Z,69.4
2018-09-10T05:29:56.702Z,69.2
2018-09-10T05:30:56.696Z,68.94
2018-09-10T05:31:56.710Z,68.85
2018-09-10T05:32:56.811Z,69.44
2018-09-10T05:33:56.690Z,69.58
2018-09-10T05:34:57.056Z,69.41
2018-09-10T05:35:56.758Z,69.29
2018-09-10T05:36:56.681Z,68.84
2018-09-10T05:37:56.686Z,69.52
2018-09-10T05:38:56.735Z,69.32
2018-09-10T05:39:57.311Z,69.61
2018-09-10T05:40:56.716Z,70
2018-09-10T05:41:56.707Z,69.52
2018-09-10T05:42:56.801Z,68.71
2018-09-10T05:43:56.708Z,69.24
2018-09-10T05:44:56.774Z,68.88
2018-09-10T05:45:56.675Z,68.62
2018-09-10T05:46:57.056Z,68.54
2018-09-10T05:47:56.839Z,68.26
2018-09-10T05:48:56.709Z,68.86
2018-09-10T05:49:56.742Z,68.58
2018-09-10T05:50:56.885Z,68.92
2018-09-10T05:51:56.772Z,68.78
2018-09-10T05:52:56.724Z,68.55
2018-09-10T05:53:56.837Z,69.23
2018-09-10T05:54:56.753Z,69.18
2018-09-10T05:55:56.772Z,69.06
2018-09-10T05:56:56.702Z,69.75
2018-09-10T05:57:56.744Z,69.24
2018-09-10T05:58:56.748Z,69.16
2018-09-10T05:59:56.726Z,68.65
2018-09-10T06:00:57.156Z,69.26
2018-09-10T06:01:56.677Z,69.53
2018-09-10T06:02:56.820Z,69.61
2018-09-10T06:03:56.889Z,68.9
2018-09-10T06:04:56.711Z,68.76
2018-09-10T06:05:56.781Z,69.43
2018-09-10T06:06:56.745Z,68.81
2018-09-10T06:07:56.774Z,69.43
2018-09-10T06:08:56.840Z,68.63
2018-09-10T06:09:56.815Z,69.17
2018-09-10T06:10:56.782Z,68.76
2018-09-10T06:11:56.823Z,68.69
2018-09-10T06:12:57.113Z,69.23
2018-09-10T06:13:56.867Z,68.82
2018-09-10T06:14:56.933Z,69.14
2018-09-10T06:15:56.878Z,68.98
2018-09-10T06:16:56.820Z,69.36
2018-09-10T06:17:56.800Z,69.49
2018-09-10T06:18:56.705Z,68.86
2018-09-10T06:19:56.715Z,69.36
2018-09-10T06:20:56.725Z,69.5
2018-09-10T06:21:56.704Z,69.29
2018-09-10T06:22:56.773Z,68.76
2018-09-10T06:23:56.824Z,69.11
2018-09-10T06:24:56.737Z,68.9
2018-09-10T06:25:56.784Z,68.71
2018-09-10T06:26:56.768Z,68.41
2018-09-10T06:27:56.731Z,68.96
2018-09-10T06:28:56.732Z,68.56
2018-09-10T06:29:56.706Z,68.51
2018-09-10T06:30:57.134Z,68.38
2018-09-10T06:31:57.143Z,68.23
2018-09-10T06:32:57.037Z,68.29
2018-09-10T06:33:56.863Z,68.59
2018-09-10T06:34:56.956Z,67.88
2018-09-10T06:35:56.717Z,68.27
2018-09-10T06:36:57.306Z,67.84
2018-09-10T06:37:56.700Z,68
2018-09-10T06:38:57.080Z,68.12
2018-09-10T06:39:56.808Z,68.12
2018-09-10T06:40:56.824Z,68.19
2018-09-10T06:41:57.101Z,68.18
2018-09-10T06:42:56.799Z,67.58
2018-09-10T06:43:57.047Z,67.9
2018-09-10T06:44:56.728Z,67.56
2018-09-10T06:45:56.796Z,67.65
2018-09-10T06:46:57.141Z,67.74
2018-09-10T06:47:57.158Z,67.45
2018-09-10T06:48:57.079Z,67.45
2018-09-10T06:49:56.748Z,67.24
2018-09-10T06:50:56.727Z,67.33
2018-09-10T06:51:56.727Z,67.37
2018-09-10T06:52:56.795Z,67.05
2018-09-10T06:53:56.784Z,66.84
2018-09-10T06:55:00.090Z,67.02
2018-09-10T06:55:56.752Z,66.96
2018-09-10T06:56:56.719Z,66.83
2018-09-10T06:57:57.030Z,67.26
2018-09-10T06:58:56.751Z,67.04
2018-09-10T06:59:56.744Z,66.6
2018-09-10T07:00:57.032Z,66.84
2018-09-10T07:01:56.762Z,66.93
2018-09-10T07:02:56.732Z,66.47
2018-09-10T07:03:56.738Z,66.76
2018-09-10T07:04:57.034Z,66.49
2018-09-10T07:05:56.881Z,66.74
2018-09-10T07:06:56.797Z,66.4
2018-09-10T07:07:56.880Z,66.21
2018-09-10T07:08:56.720Z,66.29
2018-09-10T07:09:56.756Z,66.15
2018-09-10T07:10:57.217Z,66.26
2018-09-10T07:11:56.926Z,65.94
2018-09-10T07:12:56.920Z,65.76
2018-09-10T07:13:56.778Z,65.57
2018-09-10T07:14:56.747Z,65.54
2018-09-10T07:15:56.811Z,65.48
2018-09-10T07:16:56.852Z,65.52
2018-09-10T07:17:56.806Z,65.12
2018-09-10T07:18:57.060Z,65.48
2018-09-10T07:19:56.715Z,65.16
2018-09-10T07:20:56.774Z,65.12
2018-09-10T07:21:56.796Z,65.01
2018-09-10T07:22:57.074Z,64.81
2018-09-10T07:23:56.747Z,64.49
2018-09-10T07:24:56.730Z,64.73
2018-09-10T07:25:57.318Z,64.68
2018-09-10T07:26:57.099Z,64.88
2018-09-10T07:27:57.011Z,64.85
2018-09-10T07:28:57.281Z,64.51
2018-09-10T07:29:56.821Z,64.36
2018-09-10T07:30:57.098Z,64.4
2018-09-10T07:31:57.085Z,64.24
2018-09-10T07:32:56.835Z,63.92
2018-09-10T07:33:56.976Z,63.89
2018-09-10T07:34:56.747Z,63.59
2018-09-10T07:35:56.761Z,63.33
2018-09-10T07:36:56.796Z,63.35
2018-09-10T07:37:56.814Z,63.19
2018-09-10T07:38:56.817Z,63.32
2018-09-10T07:39:56.804Z,63.55
2018-09-10T07:40:56.895Z,62.74
2018-09-10T07:41:56.775Z,63.33
2018-09-10T07:42:56.807Z,63.24
2018-09-10T07:43:57.554Z,62.87
2018-09-10T07:44:56.764Z,63.34
2018-09-10T07:45:56.875Z,62.79
2018-09-10T07:46:56.844Z,62.26
2018-09-10T07:47:56.765Z,62.11
2018-09-10T07:48:57.200Z,62.14
2018-09-10T07:49:56.791Z,62.02
2018-09-10T07:50:56.791Z,62.03
2018-09-10T07:51:56.780Z,61.82
2018-09-10T07:52:57.009Z,61.77
2018-09-10T07:53:56.784Z,62.1
2018-09-10T07:54:56.836Z,62.15
2018-09-10T07:55:57.100Z,62
2018-09-10T07:56:56.792Z,61.94
2018-09-10T07:57:56.799Z,61.9
2018-09-10T07:58:56.944Z,61.66
2018-09-10T07:59:57.254Z,61.53
2018-09-10T08:00:56.764Z,61.79
2018-09-10T08:01:56.791Z,62.02
2018-09-10T08:02:57.035Z,62.04
2018-09-10T08:03:57.190Z,62.03
2018-09-10T08:04:56.772Z,62.06
2018-09-10T08:05:56.779Z,61.99
2018-09-10T08:06:56.824Z,62.29
2018-09-10T08:07:56.792Z,61.77
2018-09-10T08:08:57.081Z,61.59
2018-09-10T08:09:56.801Z,61.89
2018-09-10T08:10:57.100Z,61.81
2018-09-10T08:11:57.412Z,61.79
2018-09-10T08:12:56.791Z,62.04
2018-09-10T08:13:56.813Z,62.22
2018-09-10T08:14:56.778Z,62.24
2018-09-10T08:15:56.991Z,61.76
2018-09-10T08:16:56.834Z,61.75
2018-09-10T08:17:56.791Z,61.54
2018-09-10T08:18:56.777Z,61.66
2018-09-10T08:19:57.054Z,61.67
2018-09-10T08:20:57.066Z,62.24
2018-09-10T08:21:56.785Z,62.19
2018-09-10T08:22:57.035Z,62.07
2018-09-10T08:23:56.904Z,62.25
2018-09-10T08:24:56.892Z,61.61
2018-09-10T08:25:56.848Z,61.41
2018-09-10T08:26:56.822Z,61.51
2018-09-10T08:27:56.790Z,61.28
2018-09-10T08:28:56.829Z,60.54
2018-09-10T08:29:56.763Z,60.25
2018-09-10T08:30:56.828Z,60.4
2018-09-10T08:31:57.044Z,60.09
2018-09-10T08:32:56.827Z,59.81
2018-09-10T08:33:57.517Z,59.64
2018-09-10T08:34:56.856Z,59
2018-09-10T08:35:56.993Z,59.5
2018-09-10T08:36:57.169Z,59.39
2018-09-10T08:37:56.827Z,58.12
2018-09-10T08:38:56.783Z,58.18
2018-09-10T08:39:56.831Z,58.71
2018-09-10T08:40:56.792Z,58.5
2018-09-10T08:41:56.792Z,58.1
2018-09-10T08:42:57.182Z,57.44
2018-09-10T08:43:56.799Z,58.07
2018-09-10T08:44:56.922Z,58.31
2018-09-10T08:45:57.134Z,58.16
2018-09-10T08:46:56.823Z,57.93
2018-09-10T08:47:56.780Z,58.35
2018-09-10T08:48:56.865Z,57.83
2018-09-10T08:49:56.783Z,57.84
2018-09-10T08:50:56.818Z,57.69
2018-09-10T08:51:57.043Z,57.28
2018-09-10T08:52:56.979Z,57.04
2018-09-10T08:53:57.153Z,57.54
2018-09-10T08:54:59.188Z,56.78
2018-09-10T08:55:58.231Z,56.95
2018-09-10T08:56:56.828Z,56.4
2018-09-10T08:57:56.818Z,56.59
2018-09-10T08:58:56.858Z,56.49
2018-09-10T08:59:56.980Z,56.23
2018-09-10T09:00:57.027Z,56.37
2018-09-10T09:01:57.247Z,56.02
2018-09-10T09:02:56.983Z,56.4
2018-09-10T09:03:56.801Z,56.2
2018-09-10T09:04:56.885Z,56.32
2018-09-10T09:05:57.085Z,56.04
2018-09-10T09:06:56.822Z,56.22
2018-09-10T09:07:57.230Z,56.29
2018-09-10T09:08:57.187Z,56.55
2018-09-10T09:09:56.803Z,57.14
2018-09-10T09:10:56.817Z,56.72
2018-09-10T09:11:56.886Z,56.77
2018-09-10T09:12:56.836Z,56.97
2018-09-10T09:13:57.067Z,56.75
2018-09-10T09:14:57.046Z,56.31
2018-09-10T09:15:56.902Z,55.61
2018-09-10T09:16:57.046Z,55.94
2018-09-10T09:17:56.847Z,55.83
2018-09-10T09:18:56.804Z,56.08
2018-09-10T09:19:56.986Z,56.44
2018-09-10T09:20:57.106Z,56.58
2018-09-10T09:21:57.210Z,56.37
2018-09-10T09:22:56.830Z,55.77
2018-09-10T09:23:56.873Z,55.97
2018-09-10T09:24:56.873Z,55.94
2018-09-10T09:25:56.836Z,55.59
2018-09-10T09:26:56.838Z,55.77
2018-09-10T09:27:58.470Z,55.26
2018-09-10T09:28:56.937Z,55.42
2018-09-10T09:29:57.378Z,55.44
2018-09-10T09:30:56.871Z,55.12
2018-09-10T09:31:56.967Z,55.27
2018-09-10T09:32:56.818Z,54.94
2018-09-10T09:33:57.000Z,55.21
2018-09-10T09:34:56.961Z,55.14
2018-09-10T09:35:56.869Z,55.21
2018-09-10T09:36:56.844Z,55.24
2018-09-10T09:37:57.186Z,55.14
2018-09-10T09:38:56.912Z,55.34
2018-09-10T09:39:56.837Z,55.1
2018-09-10T09:40:57.062Z,54.64
2018-09-10T09:41:57.006Z,55.04
2018-09-10T09:42:57.834Z,55.18
2018-09-10T09:43:57.060Z,55.16
2018-09-10T09:44:57.167Z,54.6
2018-09-10T09:45:56.934Z,54.71
2018-09-10T09:47:03.303Z,54.21
2018-09-10T09:47:56.835Z,54.42
2018-09-10T09:48:58.394Z,54.41
2018-09-10T09:49:57.021Z,54.19
2018-09-10T09:50:57.541Z,54.63
2018-09-10T09:51:56.911Z,53.5
2018-09-10T09:52:56.834Z,53.79
2018-09-10T09:53:56.843Z,53.61
2018-09-10T09:54:56.848Z,53.64
2018-09-10T09:55:57.136Z,53.58
2018-09-10T09:56:56.830Z,53.78
2018-09-10T09:57:56.923Z,54.19
2018-09-10T09:58:59.979Z,53.17
2018-09-10T09:59:56.961Z,53.72
2018-09-10T10:01:01.254Z,53.1
2018-09-10T10:01:57.046Z,52.91
2018-09-10T10:02:57.231Z,52.55
2018-09-10T10:03:57.299Z,52.64
2018-09-10T10:04:56.919Z,52.22
2018-09-10T10:05:57.189Z,52.21
2018-09-10T10:06:57.228Z,52.62
2018-09-10T10:07:56.916Z,52.71
2018-09-10T10:08:57.049Z,51.72
2018-09-10T10:09:59.671Z,51.99
2018-09-10T10:10:59.214Z,51.78
2018-09-10T10:11:57.160Z,51.59
2018-09-10T10:12:58.686Z,51.34
2018-09-10T10:13:57.047Z,50.42
2018-09-10T10:14:57.030Z,50.55
2018-09-10T10:15:56.864Z,50.94
2018-09-10T10:16:56.905Z,50.89
2018-09-10T10:17:56.858Z,50.35
2018-09-10T10:18:56.868Z,50.84
2018-09-10T10:19:56.857Z,50.73
2018-09-10T10:20:56.869Z,50.01
2018-09-10T10:21:57.101Z,49.84
2018-09-10T10:22:56.896Z,50.48
2018-09-10T10:23:56.955Z,50.39
2018-09-10T10:24:56.923Z,48.9
2018-09-10T10:25:56.939Z,48.61
2018-09-10T10:26:57.007Z,48.7
2018-09-10T10:27:56.911Z,48.64
2018-09-10T10:28:56.959Z,48.61
2018-09-10T10:29:56.980Z,49.27
2018-09-10T10:30:56.968Z,48.72
2018-09-10T10:31:56.897Z,48.72
2018-09-10T10:32:56.972Z,48.68
2018-09-10T10:33:56.948Z,48.47
2018-09-10T10:34:56.930Z,48.11
2018-09-10T10:35:57.689Z,45.72
2018-09-10T10:36:57.211Z,46.22
2018-09-10T10:37:56.875Z,46.19
2018-09-10T10:39:01.188Z,45.88
2018-09-10T10:39:57.072Z,45.95
2018-09-10T10:40:56.871Z,46.85
2018-09-10T10:41:56.950Z,45.83
2018-09-10T10:42:59.118Z,46.46
2018-09-10T10:43:57.022Z,46.43
2018-09-10T10:44:56.878Z,46.16
2018-09-10T10:45:57.000Z,44.83
2018-09-10T10:47:00.568Z,45.15
2018-09-10T10:47:56.994Z,44.6
2018-09-10T10:48:57.007Z,45.36
2018-09-10T10:50:06.010Z,44.91
2018-09-10T10:50:59.380Z,45.27
2018-09-10T10:51:57.520Z,45.76
2018-09-10T10:52:57.851Z,46.04
2018-09-10T10:53:57.953Z,45.67
2018-09-10T10:54:57.521Z,46.1
2018-09-10T10:55:57.003Z,45.46
2018-09-10T10:56:56.997Z,46.04
2018-09-10T10:57:57.540Z,46.75
2018-09-10T10:58:56.976Z,44.97
2018-09-10T10:59:56.922Z,44.71
2018-09-10T11:00:57.015Z,44.08
2018-09-10T11:01:57.108Z,43.91
2018-09-10T11:02:57.040Z,44.2
2018-09-10T11:03:57.158Z,44.03
2018-09-10T11:04:57.165Z,43.85
2018-09-10T11:05:56.996Z,44.35
2018-09-10T11:06:56.925Z,44.89
2018-09-10T11:07:56.882Z,44.96
2018-09-10T11:08:57.165Z,43.96
2018-09-10T11:09:57.536Z,44.3
2018-09-10T11:10:57.248Z,44.02
2018-09-10T11:11:56.931Z,44.25
2018-09-10T11:12:57.157Z,44.25
2018-09-10T11:13:57.758Z,44.22
2018-09-10T11:14:57.336Z,43
2018-09-10T11:15:56.959Z,42.91
2018-09-10T11:16:56.915Z,42.32
2018-09-10T11:17:56.998Z,42.72
2018-09-10T11:18:57.097Z,42.52
2018-09-10T11:19:56.919Z,42.48
2018-09-10T11:20:57.077Z,42.94
2018-09-10T11:21:57.023Z,42.75
2018-09-10T11:22:56.931Z,42.24
2018-09-10T11:23:57.088Z,42.08
2018-09-10T11:24:56.997Z,41.72
2018-09-10T11:25:57.455Z,41.86
2018-09-10T11:26:57.014Z,42.27
2018-09-10T11:27:57.072Z,43.16
2018-09-10T11:28:57.029Z,42.19
2018-09-10T11:29:57.049Z,43.29
2018-09-10T11:30:56.936Z,43.64
2018-09-10T11:31:57.038Z,43.16
2018-09-10T11:32:57.481Z,42.1
2018-09-10T11:33:57.011Z,40.47
2018-09-10T11:34:57.070Z,41.28
2018-09-10T11:35:57.043Z,41.44
2018-09-10T11:36:56.969Z,40.57
2018-09-10T11:37:57.193Z,41.03
2018-09-10T11:38:56.937Z,40.51
2018-09-10T11:39:56.922Z,41.94
2018-09-10T11:40:56.957Z,40.93
2018-09-10T11:41:57.119Z,40.75
2018-09-10T11:42:56.983Z,41.04
2018-09-10T11:43:57.033Z,39.1
2018-09-10T11:44:57.276Z,38.84
2018-09-10T11:45:57.059Z,38.01
2018-09-10T11:46:56.951Z,38.8
2018-09-10T11:47:57.111Z,39.7
2018-09-10T11:48:57.293Z,39.62
2018-09-10T11:49:56.952Z,39.64
2018-09-10T11:50:56.935Z,39.38
2018-09-10T11:51:56.932Z,38.59
2018-09-10T11:52:57.061Z,39.53
2018-09-10T11:53:57.493Z,39.27
2018-09-10T11:54:56.964Z,40.09
2018-09-10T11:55:57.054Z,40.55
2018-09-10T11:56:56.925Z,40.39
2018-09-10T11:57:57.097Z,39.11
2018-09-10T11:58:57.115Z,39.82
2018-09-10T11:59:56.995Z,40.07
2018-09-10T12:00:57.116Z,39.68
2018-09-10T12:01:57.153Z,39.46
2018-09-10T12:02:56.977Z,40.7
2018-09-10T12:03:57.068Z,38.86
2018-09-10T12:04:57.084Z,38.39
2018-09-10T12:05:57.146Z,38.49
2018-09-10T12:06:57.035Z,39.66
2018-09-10T12:07:57.191Z,39.68
2018-09-10T12:08:57.200Z,40.46
2018-09-10T12:09:57.026Z,38.9
2018-09-10T12:10:57.060Z,40.14
2018-09-10T12:11:57.194Z,39.34
2018-09-10T12:12:57.078Z,39.28
2018-09-10T12:13:57.940Z,39.8
2018-09-10T12:14:57.073Z,40.08
2018-09-10T12:15:56.964Z,39.57
2018-09-10T12:16:57.044Z,38.57
2018-09-10T12:17:57.096Z,39.07
2018-09-10T12:18:57.056Z,38.71
2018-09-10T12:19:57.021Z,38.61
2018-09-10T12:20:57.047Z,38.58
2018-09-10T12:21:57.126Z,39.25
2018-09-10T12:22:57.297Z,38.7
2018-09-10T12:23:57.455Z,39.13
2018-09-10T12:24:57.023Z,39.32
2018-09-10T12:25:57.063Z,38.9
2018-09-10T12:26:57.009Z,38.92
2018-09-10T12:27:57.163Z,39.11
2018-09-10T12:28:57.082Z,38.35
2018-09-10T12:29:57.065Z,38.53
2018-09-10T12:30:57.275Z,38.7
2018-09-10T12:31:57.381Z,39.43
2018-09-10T12:32:57.106Z,39.45
2018-09-10T12:33:56.973Z,39.27
2018-09-10T12:34:57.044Z,39.9
2018-09-10T12:35:57.012Z,39.07
2018-09-10T12:36:57.036Z,38.84
2018-09-10T12:37:56.991Z,38.9
2018-09-10T12:38:57.562Z,39.3
2018-09-10T12:39:57.270Z,39.08
2018-09-10T12:40:57.169Z,39.04
2018-09-10T12:41:57.071Z,39.41
2018-09-10T12:42:56.979Z,39.12
2018-09-10T12:43:57.023Z,39.67
2018-09-10T12:44:57.570Z,39.45
2018-09-10T12:45:57.154Z,38.62
2018-09-10T12:46:57.115Z,38.74
2018-09-10T12:47:57.162Z,39.29
2018-09-10T12:48:57.373Z,39.56
2018-09-10T12:49:57.195Z,39.01
2018-09-10T12:50:56.975Z,39.1
2018-09-10T12:51:57.032Z,36.69
2018-09-10T12:52:56.974Z,38.66
2018-09-10T12:53:57.060Z,37.9
2018-09-10T12:54:57.003Z,37.36
2018-09-10T12:55:57.108Z,37.41